Time;durP1;ratioP1;P1;durP2;ratioP2;P2;SDS_P1;SDS_P2;PMS_P1;PMS_P2;Temp;Humidity;BMP_temperature;BMP_pressure;BME280_temperature;BME280_humidity;BME280_pressure;Samples;Min_cycle;Max_cycle;Signal;HPM_P1;HPM_P2
2023/05/07 00:00:03;;;;;;;8.07;5.38;;;;;;;13.38;96.69;101504.59;4990487;28;20499;-69
2023/05/07 00:02:29;;;;;;;7.50;4.82;;;;;;;13.38;97.95;101498.25;4991986;28;20036;-69
2023/05/07 00:04:55;;;;;;;8.15;5.60;;;;;;;13.38;98.22;101493.69;5009768;28;20053;-70
2023/05/07 00:07:20;;;;;;;7.15;5.97;;;;;;;13.43;99.15;101504.25;5008771;28;20406;-70
2023/05/07 00:09:45;;;;;;;6.05;4.93;;;;;;;13.42;97.53;101495.16;4990942;28;20109;-69
2023/05/07 00:12:11;;;;;;;6.78;5.15;;;;;;;13.45;97.20;101500.41;4989645;28;20044;-69
2023/05/07 00:14:36;;;;;;;8.10;4.97;;;;;;;13.48;96.45;101493.88;4988949;28;20084;-69
2023/05/07 00:17:02;;;;;;;7.00;5.32;;;;;;;13.52;96.90;101500.81;5001545;28;20116;-70
2023/05/07 00:19:27;;;;;;;6.63;4.85;;;;;;;13.53;96.36;101495.25;5005131;28;20069;-70
2023/05/07 00:21:56;;;;;;;8.23;5.85;;;;;;;13.57;96.10;101495.91;4988701;28;20045;-69
2023/05/07 00:24:22;;;;;;;5.63;5.03;;;;;;;13.59;96.19;101490.31;4990595;28;20573;-70
2023/05/07 00:26:48;;;;;;;9.88;5.90;;;;;;;13.61;96.56;101491.06;4987133;28;20104;-69
2023/05/07 00:29:13;;;;;;;7.00;5.75;;;;;;;13.54;96.65;101477.00;5008170;28;20133;-69
2023/05/07 00:31:39;;;;;;;7.03;5.95;;;;;;;13.61;96.04;101477.41;5008137;28;20061;-69
2023/05/07 00:34:04;;;;;;;5.82;5.22;;;;;;;13.61;95.55;101486.47;4993762;28;20120;-70
2023/05/07 00:36:30;;;;;;;6.28;5.65;;;;;;;13.63;95.63;101483.63;5007907;28;20100;-70
2023/05/07 00:38:58;;;;;;;7.53;5.00;;;;;;;13.60;96.75;101476.53;5009014;28;20042;-70
2023/05/07 00:41:24;;;;;;;7.68;6.10;;;;;;;13.59;96.88;101477.53;5010169;28;20482;-69
2023/05/07 00:43:51;;;;;;;9.00;6.13;;;;;;;13.60;96.84;101473.78;4988583;28;20042;-69
2023/05/07 00:46:17;;;;;;;8.38;5.60;;;;;;;13.62;96.15;101470.97;5004884;28;20048;-70
2023/05/07 00:48:43;;;;;;;9.05;6.30;;;;;;;13.65;95.77;101478.91;4989007;28;20034;-69
2023/05/07 00:51:11;;;;;;;7.53;6.40;;;;;;;13.64;96.27;101472.56;4989742;28;20509;-69
2023/05/07 00:53:36;;;;;;;8.30;6.35;;;;;;;13.66;95.84;101470.63;4988030;28;20050;-69
2023/05/07 00:56:02;;;;;;;8.45;6.82;;;;;;;13.68;97.13;101475.97;4996855;28;20071;-70
2023/05/07 00:58:27;;;;;;;10.80;6.70;;;;;;;13.67;97.37;101468.75;5007539;28;20030;-70
2023/05/07 01:00:53;;;;;;;7.70;6.63;;;;;;;13.66;96.20;101470.63;4989959;28;20121;-69
2023/05/07 01:03:18;;;;;;;7.30;6.60;;;;;;;13.66;96.62;101476.09;4989203;28;20469;-70
2023/05/07 01:05:47;;;;;;;9.05;7.10;;;;;;;13.66;96.00;101467.88;4987952;28;20038;-70
2023/05/07 01:08:15;;;;;;;8.90;6.65;;;;;;;13.69;95.91;101473.09;4989170;28;20549;-70
2023/05/07 01:10:42;;;;;;;8.93;6.93;;;;;;;13.70;96.83;101466.63;4987761;28;20038;-69
2023/05/07 01:13:10;;;;;;;10.73;7.72;;;;;;;13.66;98.18;101462.41;4989379;28;20038;-69
2023/05/07 01:15:36;;;;;;;9.52;7.22;;;;;;;13.68;96.98;101465.88;5005653;28;20105;-69
2023/05/07 01:18:02;;;;;;;8.55;6.95;;;;;;;13.71;96.45;101464.81;5001326;28;20142;-70
2023/05/07 01:20:32;;;;;;;7.35;6.57;;;;;;;13.74;97.56;101470.00;5004049;28;20026;-70
2023/05/07 01:23:00;;;;;;;8.52;6.97;;;;;;;13.72;97.51;101458.34;5003966;28;20052;-70
2023/05/07 01:25:26;;;;;;;7.95;7.15;;;;;;;13.70;100.00;101463.91;4999791;28;20053;-69
2023/05/07 01:27:54;;;;;;;9.10;7.30;;;;;;;13.67;99.03;101450.47;4987649;28;20037;-69
2023/05/07 01:30:24;;;;;;;11.55;8.00;;;;;;;13.65;99.26;101452.44;4987542;28;20467;-70
2023/05/07 01:33:03;;;;;;;11.40;7.43;;;;;;;13.65;99.66;101448.84;4987470;28;20093;-69
2023/05/07 01:35:35;;;;;;;13.00;8.10;;;;;;;13.63;99.97;101450.84;4997104;28;20031;-69
2023/05/07 01:38:04;;;;;;;10.77;7.82;;;;;;;13.59;100.00;101439.25;4987304;28;20125;-69
2023/05/07 01:40:30;;;;;;;17.00;8.27;;;;;;;13.60;100.00;101435.50;4987512;28;20027;-69
2023/05/07 01:42:55;;;;;;;9.27;7.47;;;;;;;13.58;98.97;101436.63;4988495;28;20040;-69
2023/05/07 01:45:22;;;;;;;8.93;6.78;;;;;;;13.57;98.82;101433.03;4988038;28;20030;-69
2023/05/07 01:47:49;;;;;;;11.25;7.03;;;;;;;13.58;98.04;101445.72;4987900;28;20524;-70
2023/05/07 01:50:16;;;;;;;9.75;8.10;;;;;;;13.56;98.93;101434.00;4988963;28;20026;-70
2023/05/07 01:52:42;;;;;;;9.48;8.10;;;;;;;13.55;99.38;101431.38;4988332;28;20031;-69
2023/05/07 01:55:08;;;;;;;9.52;8.27;;;;;;;13.55;99.17;101443.19;4988611;28;20422;-69
2023/05/07 01:57:33;;;;;;;10.73;7.85;;;;;;;13.54;98.08;101436.00;4997610;28;20046;-69
2023/05/07 01:59:59;;;;;;;11.00;8.25;;;;;;;13.54;98.01;101436.00;5007007;28;20414;-70
2023/05/07 02:02:24;;;;;;;9.68;8.32;;;;;;;13.52;97.83;101433.38;5003477;28;20084;-69
2023/05/07 02:04:51;;;;;;;11.02;8.45;;;;;;;13.53;97.61;101437.84;4987784;28;20542;-70
2023/05/07 02:07:17;;;;;;;12.13;8.82;;;;;;;13.51;100.00;101428.00;4987277;28;20058;-69
2023/05/07 02:09:44;;;;;;;12.52;10.23;;;;;;;13.39;100.00;101418.03;4987929;28;20038;-69
2023/05/07 02:12:09;;;;;;;13.57;9.32;;;;;;;13.42;100.00;101432.31;5004993;28;20073;-69
2023/05/07 02:14:35;;;;;;;14.55;10.45;;;;;;;13.41;100.00;101433.28;5007047;28;20061;-70
2023/05/07 02:17:00;;;;;;;14.52;10.48;;;;;;;13.41;100.00;101427.84;5006706;28;20195;-69
2023/05/07 02:19:26;;;;;;;13.80;10.80;;;;;;;13.42;100.00;101434.16;5006095;28;20084;-69
2023/05/07 02:21:51;;;;;;;13.45;10.15;;;;;;;13.39;100.00;101429.81;5003500;28;20041;-69
2023/05/07 02:24:17;;;;;;;11.93;9.73;;;;;;;13.40;99.57;101434.28;4988668;28;20479;-69
2023/05/07 02:26:42;;;;;;;13.00;10.20;;;;;;;13.42;98.49;101440.50;4988096;28;20105;-69
2023/05/07 02:29:07;;;;;;;12.77;9.65;;;;;;;13.43;98.88;101444.09;4987294;28;20035;-69
2023/05/07 02:31:33;;;;;;;14.77;10.18;;;;;;;13.42;98.36;101437.78;4987144;28;20084;-69
2023/05/07 02:34:00;;;;;;;14.98;10.65;;;;;;;13.43;100.00;101445.00;4998615;28;20030;-69
2023/05/07 02:36:26;;;;;;;15.00;10.30;;;;;;;13.43;99.17;101438.63;4991497;28;20061;-69
2023/05/07 02:39:02;;;;;;;14.90;11.05;;;;;;;13.43;98.98;101438.63;4991332;28;20417;-69
2023/05/07 02:41:28;;;;;;;12.70;9.75;;;;;;;13.42;99.12;101434.16;4992174;28;20479;-70
2023/05/07 02:43:53;;;;;;;12.35;9.48;;;;;;;13.42;99.68;101436.91;4990683;28;20042;-70
2023/05/07 02:46:19;;;;;;;14.18;9.55;;;;;;;13.38;99.52;101438.13;4991098;28;20521;-69
2023/05/07 02:48:49;;;;;;;13.70;11.00;;;;;;;13.40;99.29;101438.88;4991174;28;20018;-69
2023/05/07 02:51:19;;;;;;;15.07;9.82;;;;;;;13.40;98.70;101438.88;4990459;28;20498;-69
2023/05/07 02:53:45;;;;;;;12.15;10.30;;;;;;;13.40;99.04;101442.50;4995001;28;20034;-69
2023/05/07 02:56:11;;;;;;;14.98;9.98;;;;;;;13.41;98.21;101446.97;4991309;28;20026;-69
2023/05/07 02:58:36;;;;;;;12.48;9.60;;;;;;;13.41;98.09;101446.97;4990433;28;20018;-69
2023/05/07 03:01:03;;;;;;;12.05;9.68;;;;;;;13.41;98.48;101443.34;4990378;28;20036;-69
2023/05/07 03:03:44;;;;;;;13.43;9.75;;;;;;;13.41;98.41;101440.63;4997684;28;20157;-69
2023/05/07 03:06:10;;;;;;;13.35;10.20;;;;;;;13.39;99.70;101437.16;5009847;28;20038;-70
2023/05/07 03:08:36;;;;;;;13.20;10.63;;;;;;;13.38;99.31;101438.13;5005702;28;20053;-70
2023/05/07 03:11:02;;;;;;;17.52;11.00;;;;;;;13.38;98.79;101436.28;4992310;28;20113;-70
2023/05/07 03:13:28;;;;;;;13.43;10.80;;;;;;;13.37;99.97;101441.84;4990140;28;20113;-70
2023/05/07 03:15:53;;;;;;;13.30;9.93;;;;;;;13.38;99.07;101432.66;4990110;28;20118;-70
2023/05/07 03:18:18;;;;;;;13.27;11.05;;;;;;;13.39;98.64;101439.88;4991656;28;20034;-70
2023/05/07 03:20:44;;;;;;;14.13;10.95;;;;;;;13.37;98.15;101436.38;4991078;28;20046;-69
2023/05/07 03:23:09;;;;;;;15.57;10.82;;;;;;;13.39;98.32;101437.16;4989497;28;20030;-70
2023/05/07 03:25:35;;;;;;;13.35;9.98;;;;;;;13.39;98.28;101434.41;4992041;28;20026;-70
2023/05/07 03:28:01;;;;;;;13.48;10.80;;;;;;;13.38;98.59;101433.53;4989595;28;20038;-69
2023/05/07 03:30:34;;;;;;;14.55;10.70;;;;;;;13.37;99.17;101430.91;4989705;28;20030;-70
2023/05/07 03:32:59;;;;;;;15.68;11.88;;;;;;;13.38;99.92;101429.91;4989602;28;20034;-70
2023/05/07 03:35:25;;;;;;;16.30;12.15;;;;;;;13.37;100.00;101418.09;5001759;28;20501;-70
2023/05/07 03:37:50;;;;;;;20.83;13.50;;;;;;;13.36;100.00;101429.16;4991973;28;20101;-70
2023/05/07 03:40:17;;;;;;;19.05;13.55;;;;;;;13.32;100.00;101423.06;4991433;28;20060;-70
2023/05/07 03:42:47;;;;;;;17.60;13.80;;;;;;;13.28;100.00;101419.66;4989078;28;20143;-70
2023/05/07 03:45:13;;;;;;;22.08;13.00;;;;;;;13.29;100.00;101423.31;4996118;28;20053;-70
2023/05/07 03:47:43;;;;;;;16.83;13.48;;;;;;;13.27;100.00;101417.94;4989816;28;20125;-70
2023/05/07 03:50:10;;;;;;;20.27;13.90;;;;;;;13.26;100.00;101421.66;4989298;28;20089;-70
2023/05/07 03:52:35;;;;;;;17.35;12.52;;;;;;;13.27;99.60;101417.06;4989635;28;20060;-70
2023/05/07 03:55:02;;;;;;;18.25;13.27;;;;;;;13.28;99.55;101429.72;4989006;28;20026;-70
2023/05/07 03:57:29;;;;;;;16.30;13.23;;;;;;;13.28;100.00;101430.59;4989104;28;20397;-70
2023/05/07 03:59:57;;;;;;;15.85;12.27;;;;;;;13.30;99.19;101433.25;4989252;28;20100;-70
2023/05/07 04:02:22;;;;;;;16.05;13.23;;;;;;;13.27;99.55;101439.78;5002517;28;20029;-70
2023/05/07 04:04:49;;;;;;;18.67;14.18;;;;;;;13.31;100.00;101445.03;5008627;28;20081;-70
2023/05/07 04:07:15;;;;;;;23.00;16.90;;;;;;;13.30;100.00;101441.44;5008446;28;20082;-69
2023/05/07 04:09:43;;;;;;;19.65;14.77;;;;;;;13.28;100.00;101433.34;4991008;28;20198;-70
2023/05/07 04:12:09;;;;;;;18.40;14.25;;;;;;;13.28;100.00;101444.25;4990118;28;20070;-69
2023/05/07 04:14:34;;;;;;;20.77;14.90;;;;;;;13.26;100.00;101443.50;4995720;28;20110;-70
2023/05/07 04:17:00;;;;;;;17.77;13.95;;;;;;;13.28;100.00;101451.59;4988877;28;20069;-70
2023/05/07 04:19:26;;;;;;;22.23;15.15;;;;;;;13.28;100.00;101447.00;5003020;28;20038;-70
2023/05/07 04:21:52;;;;;;;19.10;14.13;;;;;;;13.30;100.00;101448.75;5008520;28;20678;-69
2023/05/07 04:24:18;;;;;;;18.95;14.77;;;;;;;13.29;100.00;101450.63;5008440;28;20216;-69
2023/05/07 04:26:46;;;;;;;17.15;13.27;;;;;;;13.29;100.00;101453.38;5001681;28;20079;-69
2023/05/07 04:29:11;;;;;;;18.77;13.48;;;;;;;13.30;100.00;101451.50;4988765;28;20038;-69
2023/05/07 04:31:37;;;;;;;16.58;13.80;;;;;;;13.33;100.00;101451.25;4989488;28;20077;-69
2023/05/07 04:34:02;;;;;;;17.50;13.75;;;;;;;13.33;100.00;101459.44;4988248;28;20089;-69
2023/05/07 04:36:28;;;;;;;20.63;13.73;;;;;;;13.34;100.00;101445.69;4988499;28;20057;-69
2023/05/07 04:38:59;;;;;;;22.73;16.55;;;;;;;13.35;100.00;101450.16;4988408;28;20037;-70
2023/05/07 04:41:24;;;;;;;18.13;15.05;;;;;;;13.36;100.00;101457.38;4987808;28;20034;-70
2023/05/07 04:43:51;;;;;;;20.80;14.85;;;;;;;13.36;100.00;101451.91;4988702;28;20438;-70
2023/05/07 04:46:19;;;;;;;17.75;13.93;;;;;;;13.38;100.00;101459.97;4988347;28;20121;-70
2023/05/07 04:48:45;;;;;;;19.45;15.10;;;;;;;13.40;100.00;101458.03;4988002;28;20045;-70
2023/05/07 04:51:10;;;;;;;21.73;16.52;;;;;;;13.41;100.00;101457.91;4993816;28;20034;-70
2023/05/07 04:53:37;;;;;;;21.63;14.77;;;;;;;13.44;100.00;101456.81;4987983;28;20552;-69
2023/05/07 04:56:03;;;;;;;18.42;14.57;;;;;;;13.46;100.00;101461.16;4987366;28;20028;-69
2023/05/07 04:58:37;;;;;;;21.80;17.00;;;;;;;13.49;100.00;101465.53;4989011;28;20030;-69
2023/05/07 05:01:04;;;;;;;24.17;18.48;;;;;;;13.50;100.00;101470.00;4988027;28;20038;-70
2023/05/07 05:03:30;;;;;;;24.63;16.77;;;;;;;13.53;100.00;101470.66;4987731;28;20038;-69
2023/05/07 05:05:59;;;;;;;25.73;18.77;;;;;;;13.58;100.00;101469.44;4987619;28;20088;-70
2023/05/07 05:08:25;;;;;;;24.13;17.75;;;;;;;13.55;100.00;101456.00;4987989;28;20030;-70
2023/05/07 05:10:51;;;;;;;26.58;18.33;;;;;;;13.67;100.00;101471.50;4989365;28;20034;-70
2023/05/07 05:13:16;;;;;;;20.45;16.52;;;;;;;13.70;100.00;101468.50;4987792;28;20031;-69
2023/05/07 05:15:42;;;;;;;22.25;17.48;;;;;;;13.76;100.00;101474.41;4989236;28;20113;-69
2023/05/07 05:18:07;;;;;;;24.85;18.27;;;;;;;13.82;100.00;101467.59;4987752;28;20113;-69
2023/05/07 05:20:33;;;;;;;21.75;16.98;;;;;;;13.89;100.00;101473.44;4989241;28;20064;-69
2023/05/07 05:22:58;;;;;;;26.42;19.58;;;;;;;13.94;100.00;101465.75;4989994;28;20045;-69
2023/05/07 05:25:24;;;;;;;29.23;18.70;;;;;;;14.06;100.00;101474.91;4989483;28;20030;-69
2023/05/07 05:27:50;;;;;;;25.20;18.85;;;;;;;14.16;100.00;101476.78;4987772;28;20559;-70
2023/05/07 05:30:15;;;;;;;28.25;20.25;;;;;;;14.26;100.00;101476.94;4997570;28;20050;-70
2023/05/07 05:32:44;;;;;;;31.23;21.23;;;;;;;14.35;100.00;101483.56;4987649;28;20034;-70
2023/05/07 05:35:09;;;;;;;27.05;20.20;;;;;;;14.41;100.00;101494.94;4989331;28;20037;-69
2023/05/07 05:37:35;;;;;;;30.27;22.80;;;;;;;14.44;100.00;101491.94;5005506;28;20026;-70
2023/05/07 05:40:03;;;;;;;27.35;21.55;;;;;;;14.47;100.00;101485.38;5002933;28;20038;-70
2023/05/07 05:42:29;;;;;;;27.50;20.58;;;;;;;14.48;100.00;101488.00;5010699;28;20034;-70
2023/05/07 05:44:54;;;;;;;26.80;20.25;;;;;;;14.52;100.00;101491.38;5004253;28;20410;-70
2023/05/07 05:47:22;;;;;;;28.63;20.67;;;;;;;14.53;100.00;101494.00;4987918;28;20037;-70
2023/05/07 05:49:47;;;;;;;30.90;21.23;;;;;;;14.58;100.00;101498.22;4988940;28;20390;-70
2023/05/07 05:52:16;;;;;;;28.95;23.20;;;;;;;14.59;100.00;101497.22;4987253;28;20129;-70
2023/05/07 05:54:41;;;;;;;30.45;21.88;;;;;;;14.62;100.00;101500.59;4993182;28;20038;-70
2023/05/07 05:57:07;;;;;;;28.35;21.73;;;;;;;14.70;100.00;101503.63;4996725;28;20478;-70
2023/05/07 05:59:33;;;;;;;30.52;21.73;;;;;;;14.77;100.00;101493.03;4987466;28;20035;-70
2023/05/07 06:01:58;;;;;;;33.78;23.08;;;;;;;14.82;100.00;101490.78;4987125;28;20045;-70
2023/05/07 06:04:24;;;;;;;30.67;21.13;;;;;;;14.92;100.00;101493.66;5004337;28;20082;-70
2023/05/07 06:06:49;;;;;;;30.92;23.13;;;;;;;15.00;100.00;101494.78;5006638;28;20060;-70
2023/05/07 06:09:15;;;;;;;32.75;23.85;;;;;;;15.08;100.00;101487.84;5010546;28;20192;-69
2023/05/07 06:11:43;;;;;;;26.45;22.02;;;;;;;15.15;100.00;101502.78;5009486;28;20445;-70
2023/05/07 06:14:09;;;;;;;29.02;21.95;;;;;;;15.23;99.19;101492.94;5009717;28;20041;-70
2023/05/07 06:16:36;;;;;;;30.48;22.48;;;;;;;15.35;99.25;101499.28;5009860;28;20033;-70
2023/05/07 06:19:01;;;;;;;35.97;24.52;;;;;;;15.43;99.03;101495.91;5006825;28;20434;-70
2023/05/07 06:21:27;;;;;;;31.08;23.15;;;;;;;15.48;98.27;101493.66;4990998;28;20125;-69
2023/05/07 06:23:54;;;;;;;32.22;24.33;;;;;;;15.49;98.17;101496.28;4991013;28;20485;-69
2023/05/07 06:26:20;;;;;;;28.02;22.50;;;;;;;15.51;96.95;101499.75;4998656;28;20177;-70
2023/05/07 06:28:47;;;;;;;29.10;22.92;;;;;;;15.55;97.56;101493.03;4990072;28;20141;-70
2023/05/07 06:31:21;;;;;;;29.00;24.23;;;;;;;15.61;97.04;101497.13;5006450;28;20026;-69
2023/05/07 06:34:02;;;;;;;28.67;22.27;;;;;;;15.68;96.44;101501.16;4990483;28;20031;-70
2023/05/07 06:36:32;;;;;;;28.97;22.23;;;;;;;15.75;96.72;101502.34;4990447;28;20036;-69
2023/05/07 06:39:01;;;;;;;31.65;22.08;;;;;;;15.75;96.38;101499.63;4990517;28;20034;-70
2023/05/07 06:41:27;;;;;;;31.08;22.80;;;;;;;15.80;97.03;101500.09;4991430;28;20104;-69
2023/05/07 06:43:53;;;;;;;27.00;22.17;;;;;;;15.87;95.96;101499.59;4991021;28;20105;-69
2023/05/07 06:46:31;;;;;;;28.98;21.58;;;;;;;15.96;95.80;101507.06;5001601;28;20034;-70
2023/05/07 06:48:56;;;;;;;29.92;22.88;;;;;;;16.06;96.25;101513.50;5010088;28;20398;-70
2023/05/07 06:51:22;;;;;;;27.92;21.80;;;;;;;16.13;96.16;101513.84;5010434;28;20084;-70
2023/05/07 06:53:48;;;;;;;34.10;22.33;;;;;;;16.10;94.52;101514.13;4996697;28;20030;-69
2023/05/07 06:56:13;;;;;;;29.00;22.02;;;;;;;16.00;94.81;101512.16;4991843;28;20039;-70
2023/05/07 06:58:39;;;;;;;27.38;21.58;;;;;;;15.99;95.30;101521.41;4993372;28;20026;-69
2023/05/07 07:01:05;;;;;;;28.20;21.38;;;;;;;16.07;94.29;101523.47;5000566;28;20031;-70
2023/05/07 07:03:31;;;;;;;26.08;20.75;;;;;;;16.07;94.37;101528.97;4989903;28;20157;-70
2023/05/07 07:05:57;;;;;;;29.25;22.05;;;;;;;16.00;95.00;101520.38;5007517;28;20465;-69
2023/05/07 07:08:23;;;;;;;30.50;22.35;;;;;;;15.97;94.61;101519.78;5006465;28;20108;-70
2023/05/07 07:10:49;;;;;;;26.88;21.45;;;;;;;15.99;94.63;101523.25;4996145;28;20036;-69
2023/05/07 07:13:14;;;;;;;27.05;20.50;;;;;;;15.99;96.44;101520.50;5007012;28;20278;-70
2023/05/07 07:15:40;;;;;;;31.27;24.08;;;;;;;15.97;96.21;101517.91;4997149;28;20038;-70
2023/05/07 07:18:06;;;;;;;32.38;22.73;;;;;;;15.99;96.61;101517.75;5000954;28;20034;-69
2023/05/07 07:20:32;;;;;;;27.48;22.40;;;;;;;16.01;96.61;101518.50;4992093;28;20466;-69
2023/05/07 07:22:57;;;;;;;28.33;21.92;;;;;;;16.02;95.07;101515.63;5008874;28;20060;-69
2023/05/07 07:25:23;;;;;;;27.05;21.67;;;;;;;16.03;95.19;101533.84;5004133;28;20687;-69
2023/05/07 07:27:49;;;;;;;29.92;22.25;;;;;;;16.03;95.58;101524.72;4989503;28;20042;-69
2023/05/07 07:30:15;;;;;;;30.55;22.80;;;;;;;16.06;95.56;101529.97;4989648;28;20245;-70
2023/05/07 07:32:44;;;;;;;30.05;23.85;;;;;;;16.13;95.69;101531.19;4989627;28;20130;-69
2023/05/07 07:35:10;;;;;;;31.58;22.95;;;;;;;16.20;95.08;101532.41;4990525;28;20145;-69
2023/05/07 07:37:36;;;;;;;26.33;22.02;;;;;;;16.28;94.83;101531.78;5005725;28;20108;-70
2023/05/07 07:40:03;;;;;;;29.20;21.17;;;;;;;16.44;95.04;101532.19;4990599;28;20034;-70
2023/05/07 07:42:29;;;;;;;29.05;23.25;;;;;;;16.55;96.62;101542.22;4988939;28;20061;-69
2023/05/07 07:44:55;;;;;;;29.52;22.13;;;;;;;16.63;94.56;101539.69;5006145;28;20057;-69
2023/05/07 07:47:22;;;;;;;29.60;22.67;;;;;;;16.77;94.81;101538.53;4989842;28;20038;-69
2023/05/07 07:49:49;;;;;;;29.83;24.25;;;;;;;16.83;94.32;101541.63;4989600;28;20062;-69
2023/05/07 07:52:15;;;;;;;31.35;23.00;;;;;;;16.91;93.28;101540.94;4989186;28;20060;-69
2023/05/07 07:54:42;;;;;;;30.67;24.13;;;;;;;17.03;92.36;101537.09;4989831;28;20441;-69
2023/05/07 07:57:08;;;;;;;25.60;21.55;;;;;;;17.09;91.00;101544.81;5006953;28;20025;-69
2023/05/07 07:59:34;;;;;;;28.63;21.85;;;;;;;17.22;90.90;101543.72;5008370;28;20037;-69
2023/05/07 08:01:59;;;;;;;28.02;21.92;;;;;;;17.32;91.85;101542.75;5010062;28;20049;-70
2023/05/07 08:04:27;;;;;;;29.83;22.55;;;;;;;17.32;90.14;101545.50;5008153;28;20046;-69
2023/05/07 08:06:54;;;;;;;26.88;21.67;;;;;;;17.45;89.32;101538.91;5008716;28;20541;-69
2023/05/07 08:09:20;;;;;;;30.05;22.55;;;;;;;17.56;90.91;101541.53;5009045;28;20038;-69
2023/05/07 08:11:46;;;;;;;27.88;20.92;;;;;;;17.66;88.16;101536.94;5004872;28;20080;-69
2023/05/07 08:14:13;;;;;;;26.05;20.17;;;;;;;17.80;87.54;101536.56;5008684;28;20076;-69
2023/05/07 08:16:38;;;;;;;25.70;19.90;;;;;;;17.81;86.69;101537.44;5004066;28;20073;-69
2023/05/07 08:19:04;;;;;;;22.42;19.33;;;;;;;17.78;86.92;101538.59;4988796;28;20065;-70
2023/05/07 08:21:30;;;;;;;25.05;19.63;;;;;;;17.81;87.50;101534.69;5008200;28;20037;-70
2023/05/07 08:23:56;;;;;;;27.98;21.10;;;;;;;17.92;87.31;101536.47;5008391;28;20073;-70
2023/05/07 08:26:22;;;;;;;26.00;20.92;;;;;;;17.99;86.21;101548.63;5006215;28;20466;-69
2023/05/07 08:28:47;;;;;;;24.33;19.55;;;;;;;18.13;85.47;101552.84;5008357;28;20099;-69
2023/05/07 08:31:13;;;;;;;24.90;19.63;;;;;;;18.26;85.18;101542.44;4991308;28;20038;-70
2023/05/07 08:33:40;;;;;;;26.35;18.13;;;;;;;18.36;83.27;101554.34;4988586;28;20034;-69
2023/05/07 08:36:06;;;;;;;24.95;19.02;;;;;;;18.33;82.62;101550.00;4989635;28;20482;-69
2023/05/07 08:38:32;;;;;;;26.15;19.02;;;;;;;18.44;84.66;101551.72;4988213;28;20495;-69
2023/05/07 08:40:57;;;;;;;24.50;18.92;;;;;;;18.59;83.85;101549.41;4994253;28;20034;-69
2023/05/07 08:43:26;;;;;;;27.70;19.15;;;;;;;18.64;82.73;101557.22;4988941;28;20056;-69
2023/05/07 08:45:54;;;;;;;22.90;18.90;;;;;;;18.82;82.29;101553.63;4988860;28;20289;-69
2023/05/07 08:48:25;;;;;;;21.65;16.88;;;;;;;18.97;81.55;101554.00;4988526;28;20034;-69
2023/05/07 08:50:58;;;;;;;21.75;18.65;;;;;;;19.15;84.86;101556.00;4988361;28;20383;-69
2023/05/07 08:53:25;;;;;;;22.27;18.02;;;;;;;19.14;79.32;101548.75;4991653;28;20057;-69
2023/05/07 08:55:51;;;;;;;25.00;17.80;;;;;;;19.30;82.02;101554.50;4999591;28;20033;-69
2023/05/07 08:58:16;;;;;;;20.50;17.60;;;;;;;19.41;80.64;101556.22;4988092;28;20030;-69
2023/05/07 09:00:42;;;;;;;24.83;17.40;;;;;;;19.40;80.67;101558.13;4988364;28;20112;-69
2023/05/07 09:03:12;;;;;;;21.23;17.13;;;;;;;19.42;80.21;101561.59;4987995;28;20457;-69
2023/05/07 09:05:38;;;;;;;19.65;16.17;;;;;;;19.31;79.13;101556.28;4988002;28;20496;-69
2023/05/07 09:08:07;;;;;;;19.60;16.70;;;;;;;19.41;79.92;101559.84;4987996;28;20038;-69
2023/05/07 09:10:33;;;;;;;20.65;15.68;;;;;;;19.40;78.43;101557.22;4991397;28;20037;-69
2023/05/07 09:13:00;;;;;;;20.02;16.20;;;;;;;19.60;81.51;101557.03;4991500;28;20041;-69
2023/05/07 09:15:28;;;;;;;17.55;15.68;;;;;;;19.67;77.97;101553.66;5006430;28;20049;-69
2023/05/07 09:17:53;;;;;;;20.83;16.40;;;;;;;19.68;76.52;101564.56;4989532;28;20084;-69
2023/05/07 09:20:18;;;;;;;22.13;16.88;;;;;;;19.81;79.06;101559.53;4996437;28;20026;-70
2023/05/07 09:22:44;;;;;;;18.77;16.45;;;;;;;19.86;78.45;101559.97;5007321;28;20037;-70
2023/05/07 09:25:13;;;;;;;19.40;15.15;;;;;;;19.96;77.32;101564.53;5003796;28;20465;-69
2023/05/07 09:27:39;;;;;;;20.52;15.27;;;;;;;20.01;76.17;101560.31;4987716;28;20129;-69
2023/05/07 09:30:06;;;;;;;20.15;16.48;;;;;;;19.95;76.25;101563.66;4993925;28;20100;-69
2023/05/07 09:32:39;;;;;;;21.42;16.90;;;;;;;19.93;78.48;101560.22;4987743;28;20561;-69
2023/05/07 09:35:16;;;;;;;20.85;17.10;;;;;;;19.95;77.90;101558.16;4998141;28;20053;-69
2023/05/07 09:37:42;;;;;;;23.10;16.40;;;;;;;19.93;75.91;101556.59;5007181;28;20552;-70
2023/05/07 09:40:11;;;;;;;18.88;16.38;;;;;;;20.07;78.88;101564.34;4988339;28;20068;-69
2023/05/07 09:42:37;;;;;;;20.92;16.20;;;;;;;20.10;76.85;101566.81;5012071;28;20441;-69
2023/05/07 09:45:05;;;;;;;16.88;15.07;;;;;;;20.24;78.76;101570.94;5011668;28;20488;-69
2023/05/07 09:47:38;;;;;;;22.67;15.95;;;;;;;20.31;75.19;101575.66;5009975;28;20493;-69
2023/05/07 09:50:07;;;;;;;18.60;14.32;;;;;;;20.35;75.30;101574.31;5008209;28;20064;-69
2023/05/07 09:52:35;;;;;;;18.88;15.57;;;;;;;20.35;75.36;101576.22;4991671;28;20044;-69
2023/05/07 09:55:03;;;;;;;18.85;15.85;;;;;;;20.43;75.37;101567.16;4991304;28;20416;-69
2023/05/07 09:57:31;;;;;;;18.25;15.80;;;;;;;20.44;74.32;101569.75;5003486;28;20037;-70
2023/05/07 10:00:05;;;;;;;19.65;15.95;;;;;;;20.59;74.93;101572.84;4998190;28;20034;-70
2023/05/07 10:02:36;;;;;;;18.52;15.68;;;;;;;20.61;74.37;101571.69;4996127;28;20038;-70
2023/05/07 10:05:03;;;;;;;20.75;15.75;;;;;;;20.68;76.16;101565.50;4990883;28;20065;-71
2023/05/07 10:07:31;;;;;;;16.30;14.35;;;;;;;20.98;74.29;101567.81;4992126;28;20041;-69
2023/05/07 10:10:03;;;;;;;18.45;15.23;;;;;;;21.15;73.77;101574.34;4990960;28;20038;-69
2023/05/07 10:12:40;;;;;;;16.00;14.20;;;;;;;21.18;70.52;101573.16;5008132;28;20113;-69
2023/05/07 10:15:12;;;;;;;17.45;13.90;;;;;;;21.26;70.82;101578.72;5007345;28;20041;-69
2023/05/07 10:17:40;;;;;;;16.00;14.30;;;;;;;21.16;70.14;101570.53;4991298;28;20505;-69
2023/05/07 10:20:08;;;;;;;14.70;11.65;;;;;;;21.28;68.99;101577.53;5001788;28;20054;-69
2023/05/07 10:22:55;;;;;;;14.80;13.15;;;;;;;21.31;72.01;101574.50;5010131;28;20026;-69
2023/05/07 10:25:30;;;;;;;14.73;11.65;;;;;;;21.41;69.15;101566.06;4989850;28;20441;-70
2023/05/07 10:28:04;;;;;;;16.73;12.82;;;;;;;21.56;70.06;101569.09;5007028;28;20100;-69
2023/05/07 10:30:42;;;;;;;;;;;;;;;21.70;72.44;101568.47;4992259;28;20041;-70
2023/05/07 10:33:11;;;;;;;15.15;12.70;;;;;;;21.63;69.86;101572.91;5005482;28;20427;-69
2023/05/07 10:35:43;;;;;;;15.48;12.77;;;;;;;21.70;69.22;101562.91;5002150;28;20053;-69
2023/05/07 10:38:09;;;;;;;16.25;13.63;;;;;;;21.84;70.16;101570.59;5005665;28;20060;-69
2023/05/07 10:40:37;;;;;;;17.30;13.77;;;;;;;21.87;69.56;101567.50;5003597;28;20046;-70
2023/05/07 10:43:05;;;;;;;17.80;13.60;;;;;;;21.78;67.59;101568.50;5009280;28;20041;-69
2023/05/07 10:45:37;;;;;;;16.58;13.77;;;;;;;21.87;67.02;101569.41;4994036;28;20041;-69
2023/05/07 10:48:12;;;;;;;16.25;12.30;;;;;;;22.06;71.58;101569.13;5008404;28;20030;-69
2023/05/07 10:50:40;;;;;;;18.00;13.32;;;;;;;22.23;69.06;101564.50;5001775;28;20030;-70
2023/05/07 10:53:17;;;;;;;16.83;13.38;;;;;;;22.24;67.60;101566.22;4989282;28;20031;-72
2023/05/07 10:56:17;;;;;;;23.33;13.95;;;;;;;22.41;68.28;101565.22;4997262;28;20538;-69
2023/05/07 10:58:47;;;;;;;14.48;11.82;;;;;;;22.73;68.94;101565.44;5010408;28;20034;-70
2023/05/07 11:01:49;;;;;;;16.13;13.45;;;;;;;22.98;67.25;101566.31;4991639;28;20038;-70
2023/05/07 11:04:17;;;;;;;14.90;12.93;;;;;;;22.98;66.56;101561.63;4990544;28;20134;-69
2023/05/07 11:07:08;;;;;;;13.15;11.65;;;;;;;23.21;65.30;101564.56;4998592;28;20030;-70
2023/05/07 11:09:52;;;;;;;15.60;13.38;;;;;;;23.31;66.22;101556.03;5010053;28;20501;-69